Aviation Digital Data Service (ADDS)

Output produced by METARs form (1431 UTC 21 August 2019)
found at http://www.aviationweather.gov/metar/data/
 
METAR text: DGTK 211400Z 23011KT 9999 SCT012 BKN100 27/24 Q1013 NOSIG
Conditions at: DGTK (TAKORADI (AFB) , GH) observed 1400 UTC 21 August 2019
Temperature: 27.0°C (81°F)
Dewpoint: 24.0°C (75°F) [RH = 84%]
Pressure (altimeter): 29.91 inches Hg (1013.0 mb)
Winds: from the SW (230 degrees) at 13 MPH (11 knots; 5.7 m/s)
Visibility: 6 or more miles (10+ km)
Ceiling: 10000 feet AGL
Clouds: scattered clouds at 1200 feet AGL
broken clouds at 10000 feet AGL
Weather: no significant weather observed at this time

METAR text: DGTK 211300Z 23006KT 9999 SCT012 29/25 Q1015 NOSIG
Conditions at: DGTK (TAKORADI (AFB) , GH) observed 1300 UTC 21 August 2019
Temperature: 29.0°C (84°F)
Dewpoint: 25.0°C (77°F) [RH = 79%]
Pressure (altimeter): 29.97 inches Hg (1015.0 mb)
Winds: from the SW (230 degrees) at 7 MPH (6 knots; 3.1 m/s)
Visibility: 6 or more miles (10+ km)
Ceiling: at least 12,000 feet AGL
Clouds: scattered clouds at 1200 feet AGL
Weather: no significant weather observed at this time

METAR text: DGTK 211200Z 23006KT 9999 SCT012 28/25 Q1015 NOSIG
Conditions at: DGTK (TAKORADI (AFB) , GH) observed 1200 UTC 21 August 2019
Temperature: 28.0°C (82°F)
Dewpoint: 25.0°C (77°F) [RH = 84%]
Pressure (altimeter): 29.97 inches Hg (1015.0 mb)
Winds: from the SW (230 degrees) at 7 MPH (6 knots; 3.1 m/s)
Visibility: 6 or more miles (10+ km)
Ceiling: at least 12,000 feet AGL
Clouds: scattered clouds at 1200 feet AGL
Weather: no significant weather observed at this time

METAR text: DGTK 211100Z 23010KT 9999 SCT010 27/24 Q1016 NOSIG
Conditions at: DGTK (TAKORADI (AFB) , GH) observed 1100 UTC 21 August 2019
Temperature: 27.0°C (81°F)
Dewpoint: 24.0°C (75°F) [RH = 84%]
Pressure (altimeter): 30.00 inches Hg (1016.0 mb)
Winds: from the SW (230 degrees) at 12 MPH (10 knots; 5.1 m/s)
Visibility: 6 or more miles (10+ km)
Ceiling: at least 12,000 feet AGL
Clouds: scattered clouds at 1000 feet AGL
Weather: no significant weather observed at this time

METAR text: DGTK 211000Z 23006KT 9999 SCT010 27/25 Q1016 NOSIG
Conditions at: DGTK (TAKORADI (AFB) , GH) observed 1000 UTC 21 August 2019
Temperature: 27.0°C (81°F)
Dewpoint: 25.0°C (77°F) [RH = 89%]
Pressure (altimeter): 30.00 inches Hg (1016.0 mb)
Winds: from the SW (230 degrees) at 7 MPH (6 knots; 3.1 m/s)
Visibility: 6 or more miles (10+ km)
Ceiling: at least 12,000 feet AGL
Clouds: scattered clouds at 1000 feet AGL
Weather: no significant weather observed at this time

METAR text: DGTK 210900Z 23008KT 9999 SCT009 BKN080 25/24 Q1016 NOSIG
Conditions at: DGTK (TAKORADI (AFB) , GH) observed 0900 UTC 21 August 2019
Temperature: 25.0°C (77°F)
Dewpoint: 24.0°C (75°F) [RH = 94%]
Pressure (altimeter): 30.00 inches Hg (1016.0 mb)
Winds: from the SW (230 degrees) at 9 MPH (8 knots; 4.1 m/s)
Visibility: 6 or more miles (10+ km)
Ceiling: 8000 feet AGL
Clouds: scattered clouds at 900 feet AGL
broken clouds at 8000 feet AGL
Weather: no significant weather observed at this time

METAR text: DGTK 210800Z 23004KT 9999 BKN009 BKN080 24/24 Q1015 NOSIG
Conditions at: DGTK (TAKORADI (AFB) , GH) observed 0800 UTC 21 August 2019
Temperature: 24.0°C (75°F)
Dewpoint: 24.0°C (75°F) [RH = 100%]
Pressure (altimeter): 29.97 inches Hg (1015.0 mb)
Winds: from the SW (230 degrees) at 5 MPH (4 knots; 2.1 m/s)
Visibility: 6 or more miles (10+ km)
Ceiling: 900 feet AGL
Clouds: broken clouds at 900 feet AGL
broken clouds at 8000 feet AGL
Weather: no significant weather observed at this time

METAR text: DGTK 210600Z 00000KT 3000 RA BKN009 24/24 Q1014 NOSIG
Conditions at: DGTK (TAKORADI (AFB) , GH) observed 0600 UTC 21 August 2019
Temperature: 24.0°C (75°F)
Dewpoint: 24.0°C (75°F) [RH = 100%]
Pressure (altimeter): 29.94 inches Hg (1014.0 mb)
Winds: calm
Visibility: 1.86 miles (2.99 km)
Ceiling: 900 feet AGL
Clouds: broken clouds at 900 feet AGL
Weather: RA  (moderate rain)

METAR text: DGTK 210000Z 00000KT 9999 SCT009 25/24 Q1015 NOSIG
Conditions at: DGTK (TAKORADI (AFB) , GH) observed 0000 UTC 21 August 2019
Temperature: 25.0°C (77°F)
Dewpoint: 24.0°C (75°F) [RH = 94%]
Pressure (altimeter): 29.97 inches Hg (1015.0 mb)
Winds: calm
Visibility: 6 or more miles (10+ km)
Ceiling: at least 12,000 feet AGL
Clouds: scattered clouds at 900 feet AGL
Weather: no significant weather observed at this time

METAR text: DGTK 202100Z 00000KT 9999 SCT010 24/24 Q1014 NOSIG
Conditions at: DGTK (TAKORADI (AFB) , GH) observed 2100 UTC 20 August 2019
Temperature: 24.0°C (75°F)
Dewpoint: 24.0°C (75°F) [RH = 100%]
Pressure (altimeter): 29.94 inches Hg (1014.0 mb)
Winds: calm
Visibility: 6 or more miles (10+ km)
Ceiling: at least 12,000 feet AGL
Clouds: scattered clouds at 1000 feet AGL
Weather: no significant weather observed at this time

METAR text: DGTK 202000Z 00000KT 9999 SCT010 24/24 Q1013 NOSIG
Conditions at: DGTK (TAKORADI (AFB) , GH) observed 2000 UTC 20 August 2019
Temperature: 24.0°C (75°F)
Dewpoint: 24.0°C (75°F) [RH = 100%]
Pressure (altimeter): 29.91 inches Hg (1013.0 mb)
Winds: calm
Visibility: 6 or more miles (10+ km)
Ceiling: at least 12,000 feet AGL
Clouds: scattered clouds at 1000 feet AGL
Weather: no significant weather observed at this time

METAR text: DGTK 201900Z 23002KT 9999 BKN010 25/24 Q1013 NOSIG
Conditions at: DGTK (TAKORADI (AFB) , GH) observed 1900 UTC 20 August 2019
Temperature: 25.0°C (77°F)
Dewpoint: 24.0°C (75°F) [RH = 94%]
Pressure (altimeter): 29.91 inches Hg (1013.0 mb)
Winds: from the SW (230 degrees) at 2 MPH (2 knots; 1.0 m/s)
Visibility: 6 or more miles (10+ km)
Ceiling: 1000 feet AGL
Clouds: broken clouds at 1000 feet AGL
Weather: no significant weather observed at this time

METAR text: DGTK 201800Z 23009KT 3000 RA SCT010 BKN080 25/24 Q1013 NOSIG
Conditions at: DGTK (TAKORADI (AFB) , GH) observed 1800 UTC 20 August 2019
Temperature: 25.0°C (77°F)
Dewpoint: 24.0°C (75°F) [RH = 94%]
Pressure (altimeter): 29.91 inches Hg (1013.0 mb)
Winds: from the SW (230 degrees) at 10 MPH (9 knots; 4.6 m/s)
Visibility: 1.86 miles (2.99 km)
Ceiling: 8000 feet AGL
Clouds: scattered clouds at 1000 feet AGL
broken clouds at 8000 feet AGL
Weather: RA  (moderate rain)

METAR text: DGTK 201700Z 23006KT 9999 SCT011 BKN090 25/24 Q1012 NOSIG
Conditions at: DGTK (TAKORADI (AFB) , GH) observed 1700 UTC 20 August 2019
Temperature: 25.0°C (77°F)
Dewpoint: 24.0°C (75°F) [RH = 94%]
Pressure (altimeter): 29.88 inches Hg (1012.0 mb)
Winds: from the SW (230 degrees) at 7 MPH (6 knots; 3.1 m/s)
Visibility: 6 or more miles (10+ km)
Ceiling: 9000 feet AGL
Clouds: scattered clouds at 1100 feet AGL
broken clouds at 9000 feet AGL
Weather: no significant weather observed at this time

METAR text: DGTK 201600Z 23010KT 9999 SCT011 BKN090 25/24 Q1012 NOSIG
Conditions at: DGTK (TAKORADI (AFB) , GH) observed 1600 UTC 20 August 2019
Temperature: 25.0°C (77°F)
Dewpoint: 24.0°C (75°F) [RH = 94%]
Pressure (altimeter): 29.88 inches Hg (1012.0 mb)
Winds: from the SW (230 degrees) at 12 MPH (10 knots; 5.1 m/s)
Visibility: 6 or more miles (10+ km)
Ceiling: 9000 feet AGL
Clouds: scattered clouds at 1100 feet AGL
broken clouds at 9000 feet AGL
Weather: no significant weather observed at this time

METAR text: DGTK 201500Z 23010KT 9999 SCT011 BKN090 27/24 Q1012 NOSIG
Conditions at: DGTK (TAKORADI (AFB) , GH) observed 1500 UTC 20 August 2019
Temperature: 27.0°C (81°F)
Dewpoint: 24.0°C (75°F) [RH = 84%]
Pressure (altimeter): 29.88 inches Hg (1012.0 mb)
Winds: from the SW (230 degrees) at 12 MPH (10 knots; 5.1 m/s)
Visibility: 6 or more miles (10+ km)
Ceiling: 9000 feet AGL
Clouds: scattered clouds at 1100 feet AGL
broken clouds at 9000 feet AGL
Weather: no significant weather observed at this time

METAR text: DGTK 201400Z 23010KT 8000 -DZ SCT010 BKN090 26/24 Q1013 NOSIG
Conditions at: DGTK (TAKORADI (AFB) , GH) observed 1400 UTC 20 August 2019
Temperature: 26.0°C (79°F)
Dewpoint: 24.0°C (75°F) [RH = 89%]
Pressure (altimeter): 29.91 inches Hg (1013.0 mb)
Winds: from the SW (230 degrees) at 12 MPH (10 knots; 5.1 m/s)
Visibility: 5 miles ( 8 km)
Ceiling: 9000 feet AGL
Clouds: scattered clouds at 1000 feet AGL
broken clouds at 9000 feet AGL
Weather: -DZ  (light drizzle)

METAR text: DGTK 201300Z 23010KT 9999 FEW011 BKN090 28/25 Q1013 NOSIG
Conditions at: DGTK (TAKORADI (AFB) , GH) observed 1300 UTC 20 August 2019
Temperature: 28.0°C (82°F)
Dewpoint: 25.0°C (77°F) [RH = 84%]
Pressure (altimeter): 29.91 inches Hg (1013.0 mb)
Winds: from the SW (230 degrees) at 12 MPH (10 knots; 5.1 m/s)
Visibility: 6 or more miles (10+ km)
Ceiling: 9000 feet AGL
Clouds: few clouds at 1100 feet AGL
broken clouds at 9000 feet AGL
Weather: no significant weather observed at this time

METAR text: DGTK 201100Z 23008KT 9999 FEW011 BKN090 28/25 Q1015 NOSIG
Conditions at: DGTK (TAKORADI (AFB) , GH) observed 1100 UTC 20 August 2019
Temperature: 28.0°C (82°F)
Dewpoint: 25.0°C (77°F) [RH = 84%]
Pressure (altimeter): 29.97 inches Hg (1015.0 mb)
Winds: from the SW (230 degrees) at 9 MPH (8 knots; 4.1 m/s)
Visibility: 6 or more miles (10+ km)
Ceiling: 9000 feet AGL
Clouds: few clouds at 1100 feet AGL
broken clouds at 9000 feet AGL
Weather: no significant weather observed at this time

METAR text: DGTK 201000Z 23008KT 9999 BKN090 27/25 Q1015 NOSIG
Conditions at: DGTK (TAKORADI (AFB) , GH) observed 1000 UTC 20 August 2019
Temperature: 27.0°C (81°F)
Dewpoint: 25.0°C (77°F) [RH = 89%]
Pressure (altimeter): 29.97 inches Hg (1015.0 mb)
Winds: from the SW (230 degrees) at 9 MPH (8 knots; 4.1 m/s)
Visibility: 6 or more miles (10+ km)
Ceiling: 9000 feet AGL
Clouds: broken clouds at 9000 feet AGL
Weather: no significant weather observed at this time

METAR text: DGTK 200900Z 23006KT 9999 SCT010 BKN080 26/24 Q1015 NOSIG
Conditions at: DGTK (TAKORADI (AFB) , GH) observed 0900 UTC 20 August 2019
Temperature: 26.0°C (79°F)
Dewpoint: 24.0°C (75°F) [RH = 89%]
Pressure (altimeter): 29.97 inches Hg (1015.0 mb)
Winds: from the SW (230 degrees) at 7 MPH (6 knots; 3.1 m/s)
Visibility: 6 or more miles (10+ km)
Ceiling: 8000 feet AGL
Clouds: scattered clouds at 1000 feet AGL
broken clouds at 8000 feet AGL
Weather: no significant weather observed at this time

METAR text: DGTK 200800Z 23004KT 9999 BKN080 25/25 Q1014 NOSIG
Conditions at: DGTK (TAKORADI (AFB) , GH) observed 0800 UTC 20 August 2019
Temperature: 25.0°C (77°F)
Dewpoint: 25.0°C (77°F) [RH = 100%]
Pressure (altimeter): 29.94 inches Hg (1014.0 mb)
Winds: from the SW (230 degrees) at 5 MPH (4 knots; 2.1 m/s)
Visibility: 6 or more miles (10+ km)
Ceiling: 8000 feet AGL
Clouds: broken clouds at 8000 feet AGL
Weather: no significant weather observed at this time

METAR text: DGTK 200500Z 23007KT 9999 SCT010 BKN080 24/23 Q1012 NOSIG
Conditions at: DGTK (TAKORADI (AFB) , GH) observed 0500 UTC 20 August 2019
Temperature: 24.0°C (75°F)
Dewpoint: 23.0°C (73°F) [RH = 94%]
Pressure (altimeter): 29.88 inches Hg (1012.0 mb)
Winds: from the SW (230 degrees) at 8 MPH (7 knots; 3.6 m/s)
Visibility: 6 or more miles (10+ km)
Ceiling: 8000 feet AGL
Clouds: scattered clouds at 1000 feet AGL
broken clouds at 8000 feet AGL
Weather: no significant weather observed at this time

METAR text: DGTK 200400Z 23006KT 9999 SCT010 BKN080 25/24 Q1012 NOSIG
Conditions at: DGTK (TAKORADI (AFB) , GH) observed 0400 UTC 20 August 2019
Temperature: 25.0°C (77°F)
Dewpoint: 24.0°C (75°F) [RH = 94%]
Pressure (altimeter): 29.88 inches Hg (1012.0 mb)
Winds: from the SW (230 degrees) at 7 MPH (6 knots; 3.1 m/s)
Visibility: 6 or more miles (10+ km)
Ceiling: 8000 feet AGL
Clouds: scattered clouds at 1000 feet AGL
broken clouds at 8000 feet AGL
Weather: no significant weather observed at this time

METAR text: DGTK 200300Z 23007KT 9999 SCT010 BKN080 25/24 Q1012 NOSIG
Conditions at: DGTK (TAKORADI (AFB) , GH) observed 0300 UTC 20 August 2019
Temperature: 25.0°C (77°F)
Dewpoint: 24.0°C (75°F) [RH = 94%]
Pressure (altimeter): 29.88 inches Hg (1012.0 mb)
Winds: from the SW (230 degrees) at 8 MPH (7 knots; 3.6 m/s)
Visibility: 6 or more miles (10+ km)
Ceiling: 8000 feet AGL
Clouds: scattered clouds at 1000 feet AGL
broken clouds at 8000 feet AGL
Weather: no significant weather observed at this time

Forecast for: DGTK (TAKORADI (AFB) , GH)
Text: TAF DGTK 211100Z 2112/2218 23005G15KT 9999 SCT014
Forecast period: 1200 to 2200 UTC 21 August 2019
Forecast type: FROM: standard forecast or significant change
Winds: from the SW (230 degrees) at 6 MPH (5 knots; 2.6 m/s)
gusting to 17 MPH (15 knots; 7.7 m/s)
Visibility: 6 or more miles 10+ km)
Ceiling: at least 12,000 feet AGL
Clouds: scattered clouds at 1400 feet AGL
Weather: no significant weather forecast for this period
Text: PROB30
Forecast period: 1600 to 2000 UTC 21 August 2019
Forecast type: TEMPORARY: The following changes expected for less than half the time period
Visibility: 4 miles (6 km)
Ceiling: 1000 feet AGL
Clouds: broken clouds at 1000 feet AGL
Weather: RA DZ  (moderate rain, moderate drizzle)
Text: TEMPO 2116/2120 6000 DZ/RA BKN010
Forecast period: 2200 UTC 21 August 2019 to 1800 UTC 22 August 2019
Forecast type: BECOMING: Conditions expected to become as follows by 0000 UTC 22 August 2019
Winds: calm
Visibility: 6 or more miles 10+ km)
Ceiling: unknown
Clouds: missing
Weather: NSW  (no significant weather)
Text: BECMG 2122/2200 00000KT CAVOK
Forecast period: 0500 to 0700 UTC 22 August 2019
Forecast type: TEMPORARY: The following changes expected for less than half the time period
Visibility: 3 miles (5 km)
Ceiling: at least 12,000 feet AGL
Clouds: scattered clouds at 800 feet AGL
Weather: BR  (mist)